createdAt,value
2017-03-30T00:00:52.599Z,17.42
2017-03-30T00:03:07.880Z,17.42
2017-03-30T00:05:31.555Z,17.46
2017-03-30T00:07:55.281Z,17.32
2017-03-30T00:10:18.987Z,17.44
2017-03-30T00:12:42.592Z,17.34
2017-03-30T00:15:06.251Z,17.2
2017-03-30T00:17:29.912Z,17.16
2017-03-30T00:19:53.575Z,17.1
2017-03-30T00:22:17.252Z,16.95
2017-03-30T00:24:40.923Z,16.95
2017-03-30T00:26:51.943Z,16.98
2017-03-30T00:28:53.633Z,16.87
2017-03-30T00:31:08.934Z,16.77
2017-03-30T00:33:24.216Z,16.73
2017-03-30T00:35:34.464Z,16.65
2017-03-30T00:37:53.205Z,16.68
2017-03-30T00:40:16.894Z,16.57
2017-03-30T00:42:40.570Z,16.62
2017-03-30T00:44:41.809Z,16.65
2017-03-30T00:47:05.596Z,16.65
2017-03-30T00:49:29.299Z,16.68
2017-03-30T00:51:52.967Z,16.65
2017-03-30T00:54:18.659Z,16.68
2017-03-30T00:56:33.930Z,16.84
2017-03-30T00:58:57.720Z,16.79
2017-03-30T01:01:08.398Z,16.72
2017-03-30T01:03:33.267Z,16.76
2017-03-30T01:05:57.032Z,16.69
2017-03-30T01:08:20.547Z,16.72
2017-03-30T01:10:45.224Z,16.61
2017-03-30T01:13:08.933Z,16.59
2017-03-30T01:15:32.661Z,16.54
2017-03-30T01:17:56.350Z,16.47
2017-03-30T01:20:20.058Z,16.5
2017-03-30T01:22:43.765Z,16.46
2017-03-30T01:25:07.326Z,16.57
2017-03-30T01:27:32.009Z,16.58
2017-03-30T01:29:56.521Z,16.62
2017-03-30T01:32:20.117Z,16.51
2017-03-30T01:34:43.816Z,16.57
2017-03-30T01:37:07.464Z,16.64
2017-03-30T01:39:31.258Z,16.66
2017-03-30T01:41:54.932Z,16.64
2017-03-30T01:44:19.531Z,16.72
2017-03-30T01:46:44.200Z,16.62
2017-03-30T01:49:07.869Z,16.64
2017-03-30T01:51:01.153Z,16.73
2017-03-30T01:53:24.891Z,16.64
2017-03-30T01:55:49.587Z,16.68
2017-03-30T01:58:15.207Z,16.59
2017-03-30T02:00:38.879Z,16.64
2017-03-30T02:02:54.191Z,16.64
2017-03-30T02:05:17.821Z,16.58
2017-03-30T02:07:41.498Z,16.49
2017-03-30T02:10:05.170Z,16.44
2017-03-30T02:12:30.788Z,16.51
2017-03-30T02:14:54.465Z,16.5
2017-03-30T02:16:56.179Z,16.54
2017-03-30T02:19:12.518Z,16.47
2017-03-30T02:21:37.219Z,16.44
2017-03-30T02:24:00.789Z,16.21
2017-03-30T02:26:02.505Z,16.16
2017-03-30T02:28:17.713Z,16.09
2017-03-30T02:30:10.986Z,16.13
2017-03-30T02:32:34.674Z,15.98
2017-03-30T02:34:58.416Z,15.96
2017-03-30T02:37:23.192Z,15.84
2017-03-30T02:39:47.684Z,15.83
2017-03-30T02:42:18.107Z,15.76
2017-03-30T02:44:41.643Z,15.67
2017-03-30T02:47:05.180Z,15.78
2017-03-30T02:49:28.770Z,15.67
2017-03-30T02:51:52.329Z,15.69
2017-03-30T02:54:15.915Z,15.69
2017-03-30T02:56:39.489Z,15.7
2017-03-30T02:59:03.169Z,15.69
2017-03-30T03:01:26.838Z,15.66
2017-03-30T03:03:50.440Z,15.85
2017-03-30T03:06:14.065Z,15.72
2017-03-30T03:08:38.699Z,15.83
2017-03-30T03:11:02.229Z,15.76
2017-03-30T03:13:26.828Z,15.87
2017-03-30T03:15:50.308Z,15.87
2017-03-30T03:18:13.850Z,15.83
2017-03-30T03:20:37.971Z,16.02
2017-03-30T03:23:02.421Z,16
2017-03-30T03:25:26.134Z,16.09
2017-03-30T03:27:49.565Z,16.16
2017-03-30T03:30:13.320Z,16.06
2017-03-30T03:32:37.071Z,16.16
2017-03-30T03:35:02.676Z,16
2017-03-30T03:37:28.149Z,16.09
2017-03-30T03:39:52.768Z,15.96
2017-03-30T03:42:17.471Z,15.99
2017-03-30T03:44:41.099Z,15.96
2017-03-30T03:47:05.739Z,15.88
2017-03-30T03:49:29.239Z,15.81
2017-03-30T03:51:59.507Z,15.9
2017-03-30T03:54:14.898Z,15.84
2017-03-30T03:56:38.666Z,15.67
2017-03-30T03:59:02.025Z,15.51
2017-03-30T04:01:25.598Z,15.59
2017-03-30T04:03:50.087Z,15.45
2017-03-30T04:06:15.900Z,15.19
2017-03-30T04:08:30.878Z,14.85
2017-03-30T04:10:32.559Z,14.93
2017-03-30T04:12:42.745Z,14.7
2017-03-30T04:15:06.344Z,14.28
2017-03-30T04:17:29.912Z,14.28
2017-03-30T04:19:55.424Z,14.41
2017-03-30T04:22:20.936Z,14.52
2017-03-30T04:24:44.507Z,14.73
2017-03-30T04:27:09.096Z,14.73
2017-03-30T04:29:33.616Z,14.73
2017-03-30T04:31:57.182Z,14.68
2017-03-30T04:34:22.689Z,14.61
2017-03-30T04:36:24.463Z,14.68
2017-03-30T04:38:39.598Z,14.71
2017-03-30T04:41:03.183Z,14.73
2017-03-30T04:43:26.750Z,14.79
2017-03-30T04:45:52.284Z,14.78
2017-03-30T04:48:15.751Z,14.94
2017-03-30T04:49:51.996Z,14.9
2017-03-30T04:52:07.205Z,15
2017-03-30T04:54:31.664Z,14.97
2017-03-30T04:56:55.232Z,15.15
2017-03-30T04:59:18.896Z,15
2017-03-30T05:01:43.321Z,14.9
2017-03-30T05:04:06.765Z,14.94
2017-03-30T05:06:36.982Z,14.78
2017-03-30T05:09:00.547Z,14.66
2017-03-30T05:11:31.011Z,14.44
2017-03-30T05:13:54.575Z,14.63
2017-03-30T05:16:18.261Z,14.63
2017-03-30T05:17:53.899Z,14.7
2017-03-30T05:20:10.069Z,14.86
2017-03-30T05:22:33.639Z,15
2017-03-30T05:24:57.222Z,15.27
2017-03-30T05:27:20.782Z,15.45
2017-03-30T05:29:45.462Z,15.54
2017-03-30T05:32:08.911Z,15.69
2017-03-30T05:34:32.490Z,15.85
2017-03-30T05:36:56.061Z,15.88
2017-03-30T05:39:19.673Z,16.25
2017-03-30T05:41:43.351Z,16.41
2017-03-30T05:44:06.933Z,17.24
2017-03-30T05:46:30.479Z,18.19
2017-03-30T05:48:55.185Z,19.08
2017-03-30T05:51:18.738Z,20.52
2017-03-30T05:53:42.429Z,21.96
2017-03-30T05:56:06.203Z,22.8
2017-03-30T05:58:30.061Z,23.33
2017-03-30T06:00:55.053Z,24.56
2017-03-30T06:03:19.202Z,25.77
2017-03-30T06:05:45.388Z,26.71
2017-03-30T06:08:10.525Z,27.58
2017-03-30T06:10:34.721Z,28.75
2017-03-30T06:13:00.047Z,28.71
2017-03-30T06:15:24.366Z,28.15
2017-03-30T06:17:01.702Z,27.97
2017-03-30T06:19:28.142Z,27.85
2017-03-30T06:21:52.591Z,29.2
2017-03-30T06:24:16.920Z,28.25
2017-03-30T06:26:41.224Z,30.18
2017-03-30T06:29:05.593Z,31.79
2017-03-30T06:31:29.942Z,30.73
2017-03-30T06:33:54.314Z,28.46
2017-03-30T06:36:18.665Z,27.91
2017-03-30T06:38:43.042Z,26.59
2017-03-30T06:41:07.426Z,25.68
2017-03-30T06:43:31.927Z,25.12
2017-03-30T06:45:56.342Z,24.11
2017-03-30T06:48:21.565Z,24.5
2017-03-30T06:50:46.861Z,24.65
2017-03-30T06:53:12.235Z,24.55
2017-03-30T06:55:36.507Z,26.03
2017-03-30T06:58:01.964Z,28.9
2017-03-30T07:00:27.290Z,32.68
2017-03-30T07:02:52.874Z,36.32
2017-03-30T07:05:17.590Z,37.26
2017-03-30T07:07:42.498Z,39.45
2017-03-30T07:10:07.444Z,38.27
2017-03-30T07:12:32.525Z,39
2017-03-30T07:14:57.823Z,41.45
2017-03-30T07:17:23.317Z,40.81
2017-03-30T07:19:49.081Z,40.83
2017-03-30T07:22:14.797Z,42.02
2017-03-30T07:24:40.678Z,41.78
2017-03-30T07:27:06.806Z,41.42
2017-03-30T07:29:24.202Z,44.96
2017-03-30T07:31:51.093Z,44.62
2017-03-30T07:34:17.465Z,43.8
2017-03-30T07:36:43.891Z,44.57
2017-03-30T07:39:10.323Z,47.3
2017-03-30T07:41:36.848Z,48.91
2017-03-30T07:44:03.589Z,45.66
2017-03-30T07:46:30.284Z,46.04
2017-03-30T07:48:57.416Z,47.31
2017-03-30T07:51:24.260Z,46.3
2017-03-30T07:53:51.576Z,48.11
2017-03-30T07:56:18.380Z,47.58
2017-03-30T07:58:45.374Z,43.15
2017-03-30T08:01:12.274Z,39.19
2017-03-30T08:03:41.072Z,38.69
2017-03-30T08:06:08.881Z,34.71
2017-03-30T08:08:35.756Z,32.95
2017-03-30T08:11:02.272Z,33.66
2017-03-30T08:13:28.618Z,32.44
2017-03-30T08:15:54.728Z,32.68
2017-03-30T08:18:20.699Z,32.93
2017-03-30T08:20:47.376Z,32.07
2017-03-30T08:23:12.962Z,30.38
2017-03-30T08:25:38.395Z,29.15
2017-03-30T08:28:04.597Z,28.23
2017-03-30T08:30:30.819Z,29.21
2017-03-30T08:32:57.010Z,28.4
2017-03-30T08:35:22.990Z,28.27
2017-03-30T08:37:48.977Z,27.08
2017-03-30T08:40:15.746Z,25.59
2017-03-30T08:42:47.161Z,27.05
2017-03-30T08:45:20.656Z,27.05
2017-03-30T08:47:46.607Z,26.78
2017-03-30T08:50:12.341Z,26.73
2017-03-30T08:52:43.606Z,26.93
2017-03-30T08:55:10.266Z,25.89
2017-03-30T08:57:35.928Z,25.93
2017-03-30T09:00:07.569Z,27.29
2017-03-30T09:02:32.258Z,26.79
2017-03-30T09:04:57.948Z,26.15
2017-03-30T09:07:22.641Z,27.4
2017-03-30T09:09:47.289Z,26.88
2017-03-30T09:12:12.903Z,25.73
2017-03-30T09:14:38.468Z,25.31
2017-03-30T09:17:04.209Z,26.18
2017-03-30T09:19:28.891Z,26.04
2017-03-30T09:21:53.352Z,26.29
2017-03-30T09:24:19.982Z,27.93
2017-03-30T09:26:44.640Z,27.05
2017-03-30T09:29:10.322Z,27.04
2017-03-30T09:31:34.903Z,25.98
2017-03-30T09:34:08.151Z,26.83
2017-03-30T09:36:32.675Z,26.92
2017-03-30T09:38:57.216Z,27.98
2017-03-30T09:41:21.802Z,27.43
2017-03-30T09:43:48.378Z,27.58
2017-03-30T09:46:13.967Z,28.12
2017-03-30T09:48:38.590Z,27.53
2017-03-30T09:51:04.242Z,26.01
2017-03-30T09:53:14.827Z,26.01
2017-03-30T09:55:40.558Z,25.77
2017-03-30T09:58:07.171Z,26.82
2017-03-30T10:00:31.714Z,26.49
2017-03-30T10:02:56.340Z,26.86
2017-03-30T10:05:20.855Z,25.7
2017-03-30T10:07:45.515Z,25.81
2017-03-30T10:10:12.114Z,25.39
2017-03-30T10:12:36.584Z,26.08
2017-03-30T10:15:01.096Z,25.62
2017-03-30T10:17:25.625Z,25.14
2017-03-30T10:19:51.140Z,24.99
2017-03-30T10:22:16.605Z,25.07
2017-03-30T10:24:32.628Z,25.22
2017-03-30T10:26:57.124Z,26.3
2017-03-30T10:29:22.688Z,26.59
2017-03-30T10:31:46.977Z,25.86
2017-03-30T10:34:11.482Z,26.7
2017-03-30T10:36:35.972Z,25.52
2017-03-30T10:39:00.459Z,25
2017-03-30T10:41:24.947Z,25.24
2017-03-30T10:43:49.499Z,25.26
2017-03-30T10:46:14.002Z,25.25
2017-03-30T10:48:15.530Z,24.71
2017-03-30T10:50:39.993Z,24.81
2017-03-30T10:53:04.456Z,25.14
2017-03-30T10:54:49.354Z,25.74
2017-03-30T10:57:15.059Z,25.14
2017-03-30T10:59:39.643Z,25.92
2017-03-30T11:02:04.037Z,25.73
2017-03-30T11:04:29.017Z,25.22
2017-03-30T11:06:53.900Z,25.18
2017-03-30T11:09:19.374Z,24.99
2017-03-30T11:11:44.747Z,25.22
2017-03-30T11:14:09.100Z,24.58
2017-03-30T11:16:33.445Z,25.18
2017-03-30T11:18:57.820Z,24.34
2017-03-30T11:21:22.186Z,24.29
2017-03-30T11:23:46.559Z,24.59
2017-03-30T11:26:10.946Z,25.15
2017-03-30T11:28:35.358Z,24.86
2017-03-30T11:30:59.736Z,25.29
2017-03-30T11:33:24.068Z,24.68
2017-03-30T11:35:49.539Z,23.91
2017-03-30T11:38:14.079Z,23.85
2017-03-30T11:40:39.470Z,23.95
2017-03-30T11:43:03.974Z,25.04
2017-03-30T11:45:28.221Z,25.66
2017-03-30T11:47:52.771Z,24.99
2017-03-30T11:50:17.074Z,25.8
2017-03-30T11:52:41.524Z,25.85
2017-03-30T11:55:05.844Z,25.93
2017-03-30T11:57:30.234Z,26.33
2017-03-30T11:59:54.570Z,26.22
2017-03-30T12:02:18.930Z,26.42
2017-03-30T12:04:43.325Z,25.7
2017-03-30T12:07:07.627Z,24.51
2017-03-30T12:09:31.994Z,24.38
2017-03-30T12:11:56.381Z,24.94
2017-03-30T12:14:20.690Z,25.06
2017-03-30T12:16:46.141Z,24.58
2017-03-30T12:19:10.782Z,23.76
2017-03-30T12:21:26.758Z,24.14
2017-03-30T12:23:51.317Z,24.86
2017-03-30T12:26:15.649Z,25.26
2017-03-30T12:28:39.961Z,25.33
2017-03-30T12:31:04.176Z,25.66
2017-03-30T12:33:28.476Z,25.67
2017-03-30T12:35:54.830Z,25.49
2017-03-30T12:38:20.078Z,24.63
2017-03-30T12:40:45.323Z,24.51
2017-03-30T12:43:09.620Z,24.48
2017-03-30T12:45:33.938Z,24.99
2017-03-30T12:47:59.218Z,25.21
2017-03-30T12:50:24.482Z,25.12
2017-03-30T12:52:35.011Z,25.58
2017-03-30T12:54:50.897Z,24.88
2017-03-30T12:57:15.177Z,25.29
2017-03-30T12:59:39.514Z,25.03
2017-03-30T13:02:03.765Z,25.55
2017-03-30T13:04:29.084Z,25.73
2017-03-30T13:06:53.410Z,25.36
2017-03-30T13:08:55.316Z,25.11
2017-03-30T13:11:11.219Z,25.29
2017-03-30T13:13:28.159Z,25.59
2017-03-30T13:15:52.495Z,25.74
2017-03-30T13:18:16.793Z,24.62
2017-03-30T13:22:16.811Z,24.96
2017-03-30T13:24:41.288Z,25.59
2017-03-30T13:27:06.314Z,24.89
2017-03-30T13:29:31.176Z,24.66
2017-03-30T13:31:55.537Z,24.92
2017-03-30T13:34:20.207Z,24.79
2017-03-30T13:36:45.217Z,24.78
2017-03-30T13:39:11.028Z,25.07
2017-03-30T13:41:34.990Z,25.15
2017-03-30T13:43:59.491Z,24.31
2017-03-30T13:46:23.987Z,25.21
2017-03-30T13:48:48.418Z,25.54
2017-03-30T13:51:14.261Z,25.86
2017-03-30T13:53:38.127Z,25.96
2017-03-30T13:56:02.468Z,26.08
2017-03-30T13:58:26.845Z,24.65
2017-03-30T14:00:51.242Z,24.32
2017-03-30T14:03:16.000Z,25.06
2017-03-30T14:05:40.624Z,24.97
2017-03-30T14:07:53.925Z,24.93
2017-03-30T14:10:24.361Z,24.99
2017-03-30T14:12:55.481Z,25.37
2017-03-30T14:15:20.376Z,25.71
2017-03-30T14:17:45.935Z,25.51
2017-03-30T14:21:10.062Z,25.06
2017-03-30T14:23:38.041Z,24.66
2017-03-30T14:26:02.617Z,24.61
2017-03-30T14:28:26.830Z,24.48
2017-03-30T14:30:51.221Z,24.21
2017-03-30T14:33:15.423Z,24.58
2017-03-30T14:35:39.907Z,25.06
2017-03-30T14:38:04.483Z,25.36
2017-03-30T14:40:20.365Z,25.39
2017-03-30T14:42:44.738Z,25.07
2017-03-30T14:45:09.028Z,24.77
2017-03-30T14:47:24.910Z,24.82
2017-03-30T14:49:49.220Z,24.19
2017-03-30T14:52:13.484Z,24.37
2017-03-30T14:54:37.767Z,24.11
2017-03-30T14:57:02.015Z,24.38
2017-03-30T14:59:26.391Z,24.48
2017-03-30T15:01:50.691Z,24.78
2017-03-30T15:04:14.936Z,24.68
2017-03-30T15:06:39.229Z,24.4
2017-03-30T15:09:03.526Z,24.85
2017-03-30T15:11:27.949Z,24.26
2017-03-30T15:13:53.235Z,24.06
2017-03-30T15:16:17.545Z,24.11
2017-03-30T15:18:41.855Z,24.18
2017-03-30T15:20:57.484Z,24.26
2017-03-30T15:23:21.789Z,24.44
2017-03-30T15:25:47.872Z,24.31
2017-03-30T15:28:12.208Z,24.41
2017-03-30T15:30:36.485Z,24.81
2017-03-30T15:33:00.726Z,24.81
2017-03-30T15:35:25.012Z,24.48
2017-03-30T15:37:49.437Z,24.77
2017-03-30T15:40:13.796Z,25.04
2017-03-30T15:42:38.276Z,25.03
2017-03-30T15:45:02.517Z,24.69
2017-03-30T15:47:26.803Z,24.09
2017-03-30T15:49:51.077Z,24.18
2017-03-30T15:52:15.417Z,23.96
2017-03-30T15:54:39.777Z,23.95
2017-03-30T15:56:15.957Z,24.07
2017-03-30T15:58:31.799Z,24.01
2017-03-30T16:00:56.115Z,23.99
2017-03-30T16:03:20.460Z,24.28
2017-03-30T16:05:44.792Z,24.51
2017-03-30T16:08:09.060Z,24.09
2017-03-30T16:10:19.345Z,24.11
2017-03-30T16:12:43.728Z,23.96
2017-03-30T16:15:08.000Z,24.19
2017-03-30T16:17:32.302Z,24.22
2017-03-30T16:19:56.573Z,24.29
2017-03-30T16:22:20.858Z,24.24
2017-03-30T16:24:45.051Z,23.51
2017-03-30T16:27:09.325Z,23.66
2017-03-30T16:29:19.732Z,23.99
2017-03-30T16:31:35.592Z,24.04
2017-03-30T16:33:59.937Z,24.06
2017-03-30T16:36:24.105Z,23.95
2017-03-30T16:38:48.414Z,23.99
2017-03-30T16:41:12.690Z,24.09
2017-03-30T16:43:36.964Z,23.82
2017-03-30T16:46:01.207Z,23.82
2017-03-30T16:48:25.499Z,23.77
2017-03-30T16:50:49.847Z,23.45
2017-03-30T16:53:13.935Z,23.34
2017-03-30T16:55:38.175Z,23.34
2017-03-30T16:58:02.406Z,23.33
2017-03-30T17:00:26.587Z,23.23
2017-03-30T17:02:50.758Z,23.08
2017-03-30T17:05:15.065Z,23.04
2017-03-30T17:07:39.273Z,22.99
2017-03-30T17:10:03.346Z,23.1
2017-03-30T17:12:27.522Z,23.02
2017-03-30T17:14:51.707Z,23.17
2017-03-30T17:17:15.885Z,23.1
2017-03-30T17:19:42.123Z,22.93
2017-03-30T17:21:57.905Z,22.91
2017-03-30T17:24:23.118Z,22.78
2017-03-30T17:26:54.160Z,22.55
2017-03-30T17:29:25.107Z,22.62
2017-03-30T17:31:40.886Z,22.65
2017-03-30T17:34:06.101Z,22.63
2017-03-30T17:37:57.502Z,22.56
2017-03-30T17:40:28.374Z,22.43
2017-03-30T17:42:54.604Z,22.06
2017-03-30T17:45:20.733Z,22.08
2017-03-30T17:47:52.392Z,21.94
2017-03-30T17:50:16.484Z,22.12
2017-03-30T17:52:44.036Z,21.85
2017-03-30T17:55:08.122Z,21.94
2017-03-30T17:57:32.209Z,21.7
2017-03-30T17:59:56.307Z,21.75
2017-03-30T18:02:21.395Z,21.53
2017-03-30T18:05:05.429Z,21.62
2017-03-30T18:07:22.929Z,21.74
2017-03-30T18:09:46.345Z,21.6
2017-03-30T18:12:10.417Z,21.62
2017-03-30T18:14:34.499Z,21.47
2017-03-30T18:17:05.442Z,21.38
2017-03-30T18:19:21.125Z,21.5
2017-03-30T18:21:37.734Z,21.26
2017-03-30T18:23:53.422Z,21.2
2017-03-30T18:26:03.259Z,21.23
2017-03-30T18:28:04.542Z,21.23
2017-03-30T18:30:28.594Z,21.13
2017-03-30T18:32:52.577Z,21.15
2017-03-30T18:35:16.559Z,21.15
2017-03-30T18:37:32.138Z,21.13
2017-03-30T18:39:56.125Z,21
2017-03-30T18:42:20.100Z,21.23
2017-03-30T18:44:35.676Z,21.14
2017-03-30T18:47:00.685Z,21.17
2017-03-30T18:49:24.762Z,21.19
2017-03-30T18:51:26.752Z,21.11
2017-03-30T18:53:42.303Z,20.95
2017-03-30T18:56:08.336Z,20.9
2017-03-30T18:57:44.730Z,20.75
2017-03-30T19:00:08.791Z,20.71
2017-03-30T19:02:32.761Z,20.71
2017-03-30T19:04:58.821Z,20.52
2017-03-30T19:07:22.768Z,20.55
2017-03-30T19:09:46.747Z,20.33
2017-03-30T19:11:56.571Z,20.52
2017-03-30T19:14:06.883Z,20.46
2017-03-30T19:16:33.023Z,20.36
2017-03-30T19:18:56.980Z,20.37
2017-03-30T19:21:22.994Z,20.42
2017-03-30T19:23:48.011Z,20.48
2017-03-30T19:26:19.921Z,20.34
2017-03-30T19:28:43.904Z,20.39
2017-03-30T19:31:07.880Z,20.29
2017-03-30T19:33:31.697Z,20.19
2017-03-30T19:35:55.709Z,20.08
2017-03-30T19:38:19.686Z,20.21
2017-03-30T19:39:55.970Z,19.93
2017-03-30T19:42:19.986Z,20.02
2017-03-30T19:44:45.936Z,19.92
2017-03-30T19:47:09.916Z,19.99
2017-03-30T19:49:34.905Z,19.92
2017-03-30T19:51:58.910Z,19.89
2017-03-30T19:54:23.916Z,19.84
2017-03-30T19:56:47.791Z,19.89
2017-03-30T19:59:11.683Z,20
2017-03-30T20:01:35.615Z,20.12
2017-03-30T20:03:59.657Z,20.02
2017-03-30T20:06:23.505Z,20.04
2017-03-30T20:08:47.471Z,20.07
2017-03-30T20:11:11.444Z,20.03
2017-03-30T20:13:35.449Z,19.96
2017-03-30T20:15:59.337Z,20.15
2017-03-30T20:18:25.111Z,20.11
2017-03-30T20:20:51.292Z,20.07
2017-03-30T20:22:52.634Z,19.9
2017-03-30T20:25:16.581Z,19.79
2017-03-30T20:27:42.532Z,19.97
2017-03-30T20:30:06.515Z,19.93
2017-03-30T20:34:08.992Z,19.92
2017-03-30T20:38:09.913Z,19.97
2017-03-30T20:42:10.150Z,19.93
2017-03-30T20:44:35.065Z,19.92
2017-03-30T20:47:13.480Z,19.7
2017-03-30T20:51:13.554Z,19.79
2017-03-30T20:55:14.471Z,19.74
2017-03-30T20:59:14.542Z,19.67
2017-03-30T21:03:14.625Z,19.53
2017-03-30T21:05:39.626Z,19.3
2017-03-30T21:08:11.025Z,19.34
2017-03-30T21:10:35.905Z,19.41
2017-03-30T21:13:00.809Z,19.22
2017-03-30T21:15:39.540Z,19.24
2017-03-30T21:19:41.166Z,19.05
2017-03-30T21:22:19.940Z,18.96
2017-03-30T21:26:19.981Z,18.85
2017-03-30T21:28:59.915Z,19.01
2017-03-30T21:32:59.915Z,18.89
2017-03-30T21:35:32.847Z,19.12
2017-03-30T21:37:58.763Z,19.16
2017-03-30T21:40:15.180Z,19.12
2017-03-30T21:44:15.186Z,18.89
2017-03-30T21:48:15.136Z,18.55
2017-03-30T21:50:46.603Z,18.71
2017-03-30T21:53:12.522Z,18.68
2017-03-30T21:57:19.908Z,18.73
2017-03-30T21:59:52.426Z,18.53
2017-03-30T22:02:07.802Z,18.24
2017-03-30T22:04:32.684Z,18.33
2017-03-30T22:07:05.517Z,18.18
2017-03-30T22:08:41.814Z,18.37
2017-03-30T22:12:42.649Z,18.18
2017-03-30T22:20:03.164Z,18.23
2017-03-30T22:22:33.666Z,18.24
2017-03-30T22:25:12.632Z,18.34
2017-03-30T22:27:51.960Z,18.51
2017-03-30T22:30:17.063Z,18.52
2017-03-30T22:32:42.898Z,18.51
2017-03-30T22:35:07.773Z,18.53
2017-03-30T22:37:32.878Z,18.53
2017-03-30T22:39:57.783Z,18.37
2017-03-30T22:42:28.518Z,18.43
2017-03-30T22:44:52.433Z,18.42
2017-03-30T22:47:17.275Z,18.33
2017-03-30T22:51:17.205Z,17.9
2017-03-30T22:53:57.114Z,17.93
2017-03-30T22:56:21.954Z,17.69
2017-03-30T22:58:45.841Z,17.73
2017-03-30T23:01:13.838Z,17.87
2017-03-30T23:05:30.310Z,17.5
2017-03-30T23:08:01.150Z,17.65
2017-03-30T23:10:39.990Z,17.57
2017-03-30T23:13:19.409Z,17.46
2017-03-30T23:15:47.035Z,17.38
2017-03-30T23:18:11.912Z,17.12
2017-03-30T23:20:43.451Z,17.17
2017-03-30T23:23:07.153Z,17.23
2017-03-30T23:25:31.029Z,17.31
2017-03-30T23:28:09.906Z,17.41
2017-03-30T23:32:13.529Z,17.66
2017-03-30T23:34:39.989Z,17.5
2017-03-30T23:37:16.142Z,17.2
2017-03-30T23:41:18.597Z,17.53
2017-03-30T23:45:28.381Z,17.63
2017-03-30T23:49:30.622Z,17.76
2017-03-30T23:52:58.216Z,17.84
2017-03-30T23:54:45.219Z,17.98
2017-03-30T23:58:45.397Z,18.03
